sensor_id;sensor_type;location;lat;lon;timestamp;temperature;humidity
64937;SHT30;51452;47.698;19.050;2022-09-21T00:02:08;11.86;68.80
64937;SHT30;51452;47.698;19.050;2022-09-21T00:04:33;11.84;68.78
64937;SHT30;51452;47.698;19.050;2022-09-21T00:06:59;11.88;68.73
64937;SHT30;51452;47.698;19.050;2022-09-21T00:09:24;11.86;68.81
64937;SHT30;51452;47.698;19.050;2022-09-21T00:11:49;11.81;69.02
64937;SHT30;51452;47.698;19.050;2022-09-21T00:14:15;11.75;68.88
64937;SHT30;51452;47.698;19.050;2022-09-21T00:16:41;11.74;68.90
64937;SHT30;51452;47.698;19.050;2022-09-21T00:19:07;11.73;69.02
64937;SHT30;51452;47.698;19.050;2022-09-21T00:21:33;11.70;69.05
64937;SHT30;51452;47.698;19.050;2022-09-21T00:23:59;11.65;69.06
64937;SHT30;51452;47.698;19.050;2022-09-21T00:26:27;11.61;68.72
64937;SHT30;51452;47.698;19.050;2022-09-21T00:29:00;11.68;68.63
64937;SHT30;51452;47.698;19.050;2022-09-21T00:31:27;11.63;69.29
64937;SHT30;51452;47.698;19.050;2022-09-21T00:33:52;11.55;69.12
64937;SHT30;51452;47.698;19.050;2022-09-21T00:36:21;11.48;69.01
64937;SHT30;51452;47.698;19.050;2022-09-21T00:38:51;11.45;68.90
64937;SHT30;51452;47.698;19.050;2022-09-21T00:41:18;11.38;69.33
64937;SHT30;51452;47.698;19.050;2022-09-21T00:46:51;11.34;69.38
64937;SHT30;51452;47.698;19.050;2022-09-21T00:49:17;11.40;69.51
64937;SHT30;51452;47.698;19.050;2022-09-21T00:51:44;11.33;68.92
64937;SHT30;51452;47.698;19.050;2022-09-21T00:54:21;11.20;68.22
64937;SHT30;51452;47.698;19.050;2022-09-21T00:56:48;11.07;68.39
64937;SHT30;51452;47.698;19.050;2022-09-21T00:59:15;10.93;69.21
64937;SHT30;51452;47.698;19.050;2022-09-21T01:01:41;10.83;69.29
64937;SHT30;51452;47.698;19.050;2022-09-21T01:04:07;10.79;70.33
64937;SHT30;51452;47.698;19.050;2022-09-21T01:06:33;10.71;70.92
64937;SHT30;51452;47.698;19.050;2022-09-21T01:09:01;10.73;70.35
64937;SHT30;51452;47.698;19.050;2022-09-21T01:12:28;10.62;69.56
64937;SHT30;51452;47.698;19.050;2022-09-21T01:14:52;10.56;69.33
64937;SHT30;51452;47.698;19.050;2022-09-21T01:25:58;10.34;70.34
64937;SHT30;51452;47.698;19.050;2022-09-21T01:30:56;10.21;71.78
64937;SHT30;51452;47.698;19.050;2022-09-21T01:33:32;10.14;71.85
64937;SHT30;51452;47.698;19.050;2022-09-21T01:36:04;10.21;72.28
64937;SHT30;51452;47.698;19.050;2022-09-21T01:38:35;10.25;72.61
64937;SHT30;51452;47.698;19.050;2022-09-21T01:41:04;10.34;72.93
64937;SHT30;51452;47.698;19.050;2022-09-21T01:43:37;10.38;73.02
64937;SHT30;51452;47.698;19.050;2022-09-21T01:46:05;10.46;73.07
64937;SHT30;51452;47.698;19.050;2022-09-21T01:48:35;10.54;73.32
64937;SHT30;51452;47.698;19.050;2022-09-21T01:51:06;10.59;73.23
64937;SHT30;51452;47.698;19.050;2022-09-21T01:53:36;10.65;73.19
64937;SHT30;51452;47.698;19.050;2022-09-21T01:56:14;10.59;73.41
64937;SHT30;51452;47.698;19.050;2022-09-21T01:59:09;10.65;73.17
64937;SHT30;51452;47.698;19.050;2022-09-21T02:01:46;10.76;73.05
64937;SHT30;51452;47.698;19.050;2022-09-21T02:04:13;10.75;73.22
64937;SHT30;51452;47.698;19.050;2022-09-21T02:06:40;10.76;72.94
64937;SHT30;51452;47.698;19.050;2022-09-21T02:09:07;10.79;72.81
64937;SHT30;51452;47.698;19.050;2022-09-21T02:11:34;10.69;73.26
64937;SHT30;51452;47.698;19.050;2022-09-21T02:14:10;10.75;71.87
64937;SHT30;51452;47.698;19.050;2022-09-21T02:16:37;10.82;71.08
64937;SHT30;51452;47.698;19.050;2022-09-21T02:19:33;10.89;69.99
64937;SHT30;51452;47.698;19.050;2022-09-21T02:22:09;10.96;69.16
64937;SHT30;51452;47.698;19.050;2022-09-21T02:24:43;11.07;69.89
64937;SHT30;51452;47.698;19.050;2022-09-21T02:27:24;11.07;69.58
64937;SHT30;51452;47.698;19.050;2022-09-21T02:32:40;11.14;70.24
64937;SHT30;51452;47.698;19.050;2022-09-21T02:35:31;11.06;70.43
64937;SHT30;51452;47.698;19.050;2022-09-21T02:38:21;10.97;70.69
64937;SHT30;51452;47.698;19.050;2022-09-21T02:43:24;10.93;70.78
64937;SHT30;51452;47.698;19.050;2022-09-21T02:46:01;10.86;71.06
64937;SHT30;51452;47.698;19.050;2022-09-21T02:48:43;10.85;70.80
64937;SHT30;51452;47.698;19.050;2022-09-21T02:51:14;10.86;70.86
64937;SHT30;51452;47.698;19.050;2022-09-21T02:53:41;10.79;71.00
64937;SHT30;51452;47.698;19.050;2022-09-21T02:56:08;10.77;71.22
64937;SHT30;51452;47.698;19.050;2022-09-21T02:58:39;10.77;71.59
64937;SHT30;51452;47.698;19.050;2022-09-21T03:01:09;10.76;71.50
64937;SHT30;51452;47.698;19.050;2022-09-21T03:03:35;10.77;71.42
64937;SHT30;51452;47.698;19.050;2022-09-21T03:06:00;10.69;71.62
64937;SHT30;51452;47.698;19.050;2022-09-21T03:08:26;10.68;71.38
64937;SHT30;51452;47.698;19.050;2022-09-21T03:10:51;10.59;71.52
64937;SHT30;51452;47.698;19.050;2022-09-21T03:13:18;10.61;71.47
64937;SHT30;51452;47.698;19.050;2022-09-21T03:15:44;10.65;71.49
64937;SHT30;51452;47.698;19.050;2022-09-21T03:18:10;10.62;71.53
64937;SHT30;51452;47.698;19.050;2022-09-21T03:20:37;10.55;71.27
64937;SHT30;51452;47.698;19.050;2022-09-21T03:23:03;10.56;71.14
64937;SHT30;51452;47.698;19.050;2022-09-21T03:25:29;10.58;71.40
64937;SHT30;51452;47.698;19.050;2022-09-21T03:27:55;10.65;71.28
64937;SHT30;51452;47.698;19.050;2022-09-21T03:30:25;10.62;71.46
64937;SHT30;51452;47.698;19.050;2022-09-21T03:32:52;10.54;71.76
64937;SHT30;51452;47.698;19.050;2022-09-21T03:35:18;10.59;71.83
64937;SHT30;51452;47.698;19.050;2022-09-21T03:37:44;10.62;71.32
64937;SHT30;51452;47.698;19.050;2022-09-21T03:40:10;10.59;71.05
64937;SHT30;51452;47.698;19.050;2022-09-21T03:42:38;10.62;71.06
64937;SHT30;51452;47.698;19.050;2022-09-21T03:45:04;10.58;71.06
64937;SHT30;51452;47.698;19.050;2022-09-21T03:47:29;10.59;70.96
64937;SHT30;51452;47.698;19.050;2022-09-21T03:49:55;10.61;70.77
64937;SHT30;51452;47.698;19.050;2022-09-21T03:52:20;10.59;71.02
64937;SHT30;51452;47.698;19.050;2022-09-21T03:54:45;10.52;70.85
64937;SHT30;51452;47.698;19.050;2022-09-21T03:57:11;10.48;71.21
64937;SHT30;51452;47.698;19.050;2022-09-21T03:59:36;10.52;71.15
64937;SHT30;51452;47.698;19.050;2022-09-21T04:02:01;10.54;71.39
64937;SHT30;51452;47.698;19.050;2022-09-21T04:04:27;10.59;71.17
64937;SHT30;51452;47.698;19.050;2022-09-21T04:06:53;10.59;71.83
64937;SHT30;51452;47.698;19.050;2022-09-21T04:09:18;10.58;71.89
64937;SHT30;51452;47.698;19.050;2022-09-21T04:11:44;10.54;72.20
64937;SHT30;51452;47.698;19.050;2022-09-21T04:14:13;10.49;72.26
64937;SHT30;51452;47.698;19.050;2022-09-21T04:16:38;10.54;71.79
64937;SHT30;51452;47.698;19.050;2022-09-21T04:19:03;10.54;71.47
64937;SHT30;51452;47.698;19.050;2022-09-21T04:21:29;10.49;71.26
64937;SHT30;51452;47.698;19.050;2022-09-21T04:23:55;10.42;71.45
64937;SHT30;51452;47.698;19.050;2022-09-21T04:26:26;10.40;71.71
64937;SHT30;51452;47.698;19.050;2022-09-21T04:28:53;10.41;71.54
64937;SHT30;51452;47.698;19.050;2022-09-21T04:31:19;10.48;71.31
64937;SHT30;51452;47.698;19.050;2022-09-21T04:33:47;10.55;70.27
64937;SHT30;51452;47.698;19.050;2022-09-21T04:36:13;10.62;70.18
64937;SHT30;51452;47.698;19.050;2022-09-21T04:38:39;10.75;69.90
64937;SHT30;51452;47.698;19.050;2022-09-21T04:41:04;10.88;69.60
64937;SHT30;51452;47.698;19.050;2022-09-21T04:43:31;10.89;69.72
64937;SHT30;51452;47.698;19.050;2022-09-21T04:45:56;10.99;69.23
64937;SHT30;51452;47.698;19.050;2022-09-21T04:48:22;11.03;69.28
64937;SHT30;51452;47.698;19.050;2022-09-21T04:53:33;11.00;69.59
64937;SHT30;51452;47.698;19.050;2022-09-21T04:55:59;10.99;69.72
64937;SHT30;51452;47.698;19.050;2022-09-21T04:58:24;10.99;70.04
64937;SHT30;51452;47.698;19.050;2022-09-21T05:00:51;10.95;70.27
64937;SHT30;51452;47.698;19.050;2022-09-21T05:03:18;10.85;69.94
64937;SHT30;51452;47.698;19.050;2022-09-21T05:05:50;10.89;69.95
64937;SHT30;51452;47.698;19.050;2022-09-21T05:08:16;10.99;69.80
64937;SHT30;51452;47.698;19.050;2022-09-21T05:10:43;11.10;69.50
64937;SHT30;51452;47.698;19.050;2022-09-21T05:13:09;11.16;69.99
64937;SHT30;51452;47.698;19.050;2022-09-21T05:15:38;11.22;69.82
64937;SHT30;51452;47.698;19.050;2022-09-21T05:18:03;11.26;69.66
64937;SHT30;51452;47.698;19.050;2022-09-21T05:20:29;11.30;69.79
64937;SHT30;51452;47.698;19.050;2022-09-21T05:22:54;11.28;69.83
64937;SHT30;51452;47.698;19.050;2022-09-21T05:25:19;11.31;69.83
64937;SHT30;51452;47.698;19.050;2022-09-21T05:27:45;11.27;70.10
64937;SHT30;51452;47.698;19.050;2022-09-21T05:30:11;11.23;70.49
64937;SHT30;51452;47.698;19.050;2022-09-21T05:32:55;11.27;70.43
64937;SHT30;51452;47.698;19.050;2022-09-21T05:38:17;11.38;70.45
64937;SHT30;51452;47.698;19.050;2022-09-21T05:40:44;11.38;70.81
64937;SHT30;51452;47.698;19.050;2022-09-21T05:43:11;11.26;70.86
64937;SHT30;51452;47.698;19.050;2022-09-21T05:45:41;11.26;69.62
64937;SHT30;51452;47.698;19.050;2022-09-21T05:48:25;11.26;68.17
64937;SHT30;51452;47.698;19.050;2022-09-21T05:50:57;11.37;67.52
64937;SHT30;51452;47.698;19.050;2022-09-21T05:56:34;11.64;66.87
64937;SHT30;51452;47.698;19.050;2022-09-21T06:04:24;11.81;66.23
64937;SHT30;51452;47.698;19.050;2022-09-21T06:06:50;11.92;66.45
64937;SHT30;51452;47.698;19.050;2022-09-21T06:09:15;12.06;66.26
64937;SHT30;51452;47.698;19.050;2022-09-21T06:11:40;12.16;66.89
64937;SHT30;51452;47.698;19.050;2022-09-21T06:14:06;12.18;67.04
64937;SHT30;51452;47.698;19.050;2022-09-21T06:16:41;12.36;66.73
64937;SHT30;51452;47.698;19.050;2022-09-21T06:19:13;12.42;66.31
64937;SHT30;51452;47.698;19.050;2022-09-21T06:21:38;12.56;66.59
64937;SHT30;51452;47.698;19.050;2022-09-21T06:24:04;12.64;65.72
64937;SHT30;51452;47.698;19.050;2022-09-21T06:26:29;12.76;66.15
64937;SHT30;51452;47.698;19.050;2022-09-21T06:28:54;12.87;65.90
64937;SHT30;51452;47.698;19.050;2022-09-21T06:31:20;12.93;66.01
64937;SHT30;51452;47.698;19.050;2022-09-21T06:33:45;12.91;65.54
64937;SHT30;51452;47.698;19.050;2022-09-21T06:36:10;12.84;65.80
64937;SHT30;51452;47.698;19.050;2022-09-21T06:38:36;13.07;63.88
64937;SHT30;51452;47.698;19.050;2022-09-21T06:41:02;13.16;63.26
64937;SHT30;51452;47.698;19.050;2022-09-21T06:43:28;13.24;62.64
64937;SHT30;51452;47.698;19.050;2022-09-21T06:45:55;13.26;61.91
64937;SHT30;51452;47.698;19.050;2022-09-21T06:48:21;13.39;62.16
64937;SHT30;51452;47.698;19.050;2022-09-21T06:50:46;13.38;61.89
64937;SHT30;51452;47.698;19.050;2022-09-21T06:53:12;13.39;61.62
64937;SHT30;51452;47.698;19.050;2022-09-21T06:55:38;13.56;61.35
64937;SHT30;51452;47.698;19.050;2022-09-21T06:58:04;13.56;61.61
64937;SHT30;51452;47.698;19.050;2022-09-21T07:00:30;13.66;61.51
64937;SHT30;51452;47.698;19.050;2022-09-21T07:02:55;13.75;60.93
64937;SHT30;51452;47.698;19.050;2022-09-21T07:05:21;13.87;60.95
64937;SHT30;51452;47.698;19.050;2022-09-21T07:07:46;13.89;61.02
64937;SHT30;51452;47.698;19.050;2022-09-21T07:10:12;14.02;61.53
64937;SHT30;51452;47.698;19.050;2022-09-21T07:12:37;14.02;60.68
64937;SHT30;51452;47.698;19.050;2022-09-21T07:15:04;14.03;61.36
64937;SHT30;51452;47.698;19.050;2022-09-21T07:17:34;14.13;60.27
64937;SHT30;51452;47.698;19.050;2022-09-21T07:20:00;14.30;60.71
64937;SHT30;51452;47.698;19.050;2022-09-21T07:22:29;14.48;60.54
64937;SHT30;51452;47.698;19.050;2022-09-21T07:24:55;14.48;60.56
64937;SHT30;51452;47.698;19.050;2022-09-21T07:27:20;14.63;59.25
64937;SHT30;51452;47.698;19.050;2022-09-21T07:29:45;14.67;59.59
64937;SHT30;51452;47.698;19.050;2022-09-21T07:32:12;14.68;59.27
64937;SHT30;51452;47.698;19.050;2022-09-21T07:34:37;14.67;59.20
64937;SHT30;51452;47.698;19.050;2022-09-21T07:37:03;14.57;60.93
64937;SHT30;51452;47.698;19.050;2022-09-21T07:39:29;14.61;60.38
64937;SHT30;51452;47.698;19.050;2022-09-21T07:41:55;14.60;60.93
64937;SHT30;51452;47.698;19.050;2022-09-21T07:44:22;14.55;60.07
64937;SHT30;51452;47.698;19.050;2022-09-21T07:46:48;14.37;60.33
64937;SHT30;51452;47.698;19.050;2022-09-21T07:49:13;14.30;61.21
64937;SHT30;51452;47.698;19.050;2022-09-21T07:51:39;14.25;61.60
64937;SHT30;51452;47.698;19.050;2022-09-21T07:54:04;14.23;60.70
64937;SHT30;51452;47.698;19.050;2022-09-21T07:56:29;14.28;61.19
64937;SHT30;51452;47.698;19.050;2022-09-21T07:58:55;14.33;60.78
64937;SHT30;51452;47.698;19.050;2022-09-21T08:01:33;14.25;59.75
64937;SHT30;51452;47.698;19.050;2022-09-21T08:03:59;14.30;60.35
64937;SHT30;51452;47.698;19.050;2022-09-21T08:06:26;14.41;60.45
64937;SHT30;51452;47.698;19.050;2022-09-21T08:08:52;14.48;61.17
64937;SHT30;51452;47.698;19.050;2022-09-21T08:11:20;14.76;59.53
64937;SHT30;51452;47.698;19.050;2022-09-21T08:13:52;14.95;60.47
64937;SHT30;51452;47.698;19.050;2022-09-21T08:16:17;15.06;58.57
64937;SHT30;51452;47.698;19.050;2022-09-21T08:18:43;15.12;59.37
64937;SHT30;51452;47.698;19.050;2022-09-21T08:21:09;15.26;59.36
64937;SHT30;51452;47.698;19.050;2022-09-21T08:23:35;15.16;60.38
64937;SHT30;51452;47.698;19.050;2022-09-21T08:26:05;15.37;59.68
64937;SHT30;51452;47.698;19.050;2022-09-21T08:28:32;15.39;57.53
64937;SHT30;51452;47.698;19.050;2022-09-21T08:31:05;15.53;58.28
64937;SHT30;51452;47.698;19.050;2022-09-21T08:33:32;15.67;56.99
64937;SHT30;51452;47.698;19.050;2022-09-21T08:35:58;15.84;56.63
64937;SHT30;51452;47.698;19.050;2022-09-21T08:38:25;15.73;57.13
64937;SHT30;51452;47.698;19.050;2022-09-21T08:40:51;15.85;55.83
64937;SHT30;51452;47.698;19.050;2022-09-21T08:43:34;15.57;53.97
64937;SHT30;51452;47.698;19.050;2022-09-21T08:46:09;15.56;55.02
64937;SHT30;51452;47.698;19.050;2022-09-21T08:48:39;15.57;55.91
64937;SHT30;51452;47.698;19.050;2022-09-21T08:51:08;15.64;56.78
64937;SHT30;51452;47.698;19.050;2022-09-21T08:53:38;15.71;57.38
64937;SHT30;51452;47.698;19.050;2022-09-21T08:56:05;15.68;57.62
64937;SHT30;51452;47.698;19.050;2022-09-21T08:58:31;15.68;57.20
64937;SHT30;51452;47.698;19.050;2022-09-21T09:01:11;15.50;57.75
64937;SHT30;51452;47.698;19.050;2022-09-21T09:06:51;15.39;60.00
64937;SHT30;51452;47.698;19.050;2022-09-21T09:14:55;15.57;59.25
64937;SHT30;51452;47.698;19.050;2022-09-21T09:20:17;15.83;58.77
64937;SHT30;51452;47.698;19.050;2022-09-21T09:22:53;15.74;56.40
64937;SHT30;51452;47.698;19.050;2022-09-21T09:25:24;15.94;56.66
64937;SHT30;51452;47.698;19.050;2022-09-21T09:27:54;15.87;56.72
64937;SHT30;51452;47.698;19.050;2022-09-21T09:30:27;15.84;55.61
64937;SHT30;51452;47.698;19.050;2022-09-21T09:33:18;15.87;56.61
64937;SHT30;51452;47.698;19.050;2022-09-21T09:35:47;16.00;55.80
64937;SHT30;51452;47.698;19.050;2022-09-21T09:38:27;16.00;55.14
64937;SHT30;51452;47.698;19.050;2022-09-21T09:41:06;15.94;55.03
64937;SHT30;51452;47.698;19.050;2022-09-21T09:51:26;16.15;56.54
64937;SHT30;51452;47.698;19.050;2022-09-21T09:53:57;16.25;55.51
64937;SHT30;51452;47.698;19.050;2022-09-21T09:56:23;16.32;55.69
64937;SHT30;51452;47.698;19.050;2022-09-21T09:58:52;16.35;56.11
64937;SHT30;51452;47.698;19.050;2022-09-21T10:04:09;16.26;55.97
64937;SHT30;51452;47.698;19.050;2022-09-21T10:06:36;16.39;58.10
64937;SHT30;51452;47.698;19.050;2022-09-21T10:09:18;16.36;54.00
64937;SHT30;51452;47.698;19.050;2022-09-21T10:11:45;16.53;56.45
64937;SHT30;51452;47.698;19.050;2022-09-21T10:14:20;16.55;56.68
64937;SHT30;51452;47.698;19.050;2022-09-21T10:16:48;16.57;54.79
64937;SHT30;51452;47.698;19.050;2022-09-21T10:19:26;16.73;54.97
64937;SHT30;51452;47.698;19.050;2022-09-21T10:21:59;16.86;54.23
64937;SHT30;51452;47.698;19.050;2022-09-21T10:24:28;16.84;53.37
64937;SHT30;51452;47.698;19.050;2022-09-21T10:27:05;16.70;54.28
64937;SHT30;51452;47.698;19.050;2022-09-21T10:29:38;16.52;54.32
64937;SHT30;51452;47.698;19.050;2022-09-21T10:34:36;16.59;54.36
64937;SHT30;51452;47.698;19.050;2022-09-21T10:39:47;16.52;54.80
64937;SHT30;51452;47.698;19.050;2022-09-21T10:42:15;16.59;56.88
64937;SHT30;51452;47.698;19.050;2022-09-21T10:44:46;16.83;55.36
64937;SHT30;51452;47.698;19.050;2022-09-21T10:50:18;17.00;54.02
64937;SHT30;51452;47.698;19.050;2022-09-21T10:52:46;17.08;52.45
64937;SHT30;51452;47.698;19.050;2022-09-21T10:55:17;16.91;51.87
64937;SHT30;51452;47.698;19.050;2022-09-21T10:57:44;17.10;51.98
64937;SHT30;51452;47.698;19.050;2022-09-21T11:00:25;17.18;52.96
64937;SHT30;51452;47.698;19.050;2022-09-21T11:02:55;17.31;51.82
64937;SHT30;51452;47.698;19.050;2022-09-21T11:05:25;17.28;51.98
64937;SHT30;51452;47.698;19.050;2022-09-21T11:10:43;17.14;51.66
64937;SHT30;51452;47.698;19.050;2022-09-21T11:21:14;17.41;50.13
64937;SHT30;51452;47.698;19.050;2022-09-21T11:26:44;17.52;49.43
64937;SHT30;51452;47.698;19.050;2022-09-21T11:32:30;17.41;51.34
64937;SHT30;51452;47.698;19.050;2022-09-21T11:35:17;17.51;52.64
64937;SHT30;51452;47.698;19.050;2022-09-21T11:46:44;16.93;50.52
64937;SHT30;51452;47.698;19.050;2022-09-21T11:49:33;16.93;51.23
64937;SHT30;51452;47.698;19.050;2022-09-21T11:54:58;17.25;53.45
64937;SHT30;51452;47.698;19.050;2022-09-21T11:57:44;17.55;54.01
64937;SHT30;51452;47.698;19.050;2022-09-21T12:00:16;17.69;50.80
64937;SHT30;51452;47.698;19.050;2022-09-21T12:11:42;18.03;49.06
64937;SHT30;51452;47.698;19.050;2022-09-21T12:14:28;18.12;50.71
64937;SHT30;51452;47.698;19.050;2022-09-21T12:19:57;18.09;50.92
64937;SHT30;51452;47.698;19.050;2022-09-21T12:22:31;18.10;49.66
64937;SHT30;51452;47.698;19.050;2022-09-21T12:25:18;17.95;46.24
64937;SHT30;51452;47.698;19.050;2022-09-21T12:27:57;17.89;49.94
64937;SHT30;51452;47.698;19.050;2022-09-21T12:30:24;17.95;51.89
64937;SHT30;51452;47.698;19.050;2022-09-21T12:32:57;17.92;49.69
64937;SHT30;51452;47.698;19.050;2022-09-21T12:35:46;17.86;49.27
64937;SHT30;51452;47.698;19.050;2022-09-21T12:43:25;18.06;49.19
64937;SHT30;51452;47.698;19.050;2022-09-21T12:45:57;18.14;48.44
64937;SHT30;51452;47.698;19.050;2022-09-21T12:48:29;18.16;47.77
64937;SHT30;51452;47.698;19.050;2022-09-21T12:53:32;18.12;47.19
64937;SHT30;51452;47.698;19.050;2022-09-21T13:04:08;18.13;46.99
64937;SHT30;51452;47.698;19.050;2022-09-21T13:09:19;18.13;45.37
64937;SHT30;51452;47.698;19.050;2022-09-21T13:12:14;18.03;45.45
64937;SHT30;51452;47.698;19.050;2022-09-21T13:14:44;18.07;45.46
64937;SHT30;51452;47.698;19.050;2022-09-21T13:17:31;18.00;46.63
64937;SHT30;51452;47.698;19.050;2022-09-21T13:22:34;18.16;46.91
64937;SHT30;51452;47.698;19.050;2022-09-21T13:25:19;18.06;45.01
64937;SHT30;51452;47.698;19.050;2022-09-21T13:44:00;18.29;42.89
64937;SHT30;51452;47.698;19.050;2022-09-21T13:49:27;18.18;44.00
64937;SHT30;51452;47.698;19.050;2022-09-21T13:52:29;18.20;44.04
64937;SHT30;51452;47.698;19.050;2022-09-21T13:54:58;18.29;45.38
64937;SHT30;51452;47.698;19.050;2022-09-21T13:57:39;18.25;44.28
64937;SHT30;51452;47.698;19.050;2022-09-21T14:08:06;18.23;45.30
64937;SHT30;51452;47.698;19.050;2022-09-21T14:10:52;18.20;44.65
64937;SHT30;51452;47.698;19.050;2022-09-21T14:13:34;18.22;44.27
64937;SHT30;51452;47.698;19.050;2022-09-21T14:18:58;18.27;44.26
64937;SHT30;51452;47.698;19.050;2022-09-21T14:21:24;18.17;43.67
64937;SHT30;51452;47.698;19.050;2022-09-21T14:24:19;18.18;43.96
64937;SHT30;51452;47.698;19.050;2022-09-21T14:26:52;18.20;43.73
64937;SHT30;51452;47.698;19.050;2022-09-21T14:32:10;17.66;44.49
64937;SHT30;51452;47.698;19.050;2022-09-21T14:34:40;17.62;45.02
64937;SHT30;51452;47.698;19.050;2022-09-21T14:37:38;17.49;46.05
64937;SHT30;51452;47.698;19.050;2022-09-21T14:40:31;17.49;46.31
64937;SHT30;51452;47.698;19.050;2022-09-21T14:43:00;17.47;46.44
64937;SHT30;51452;47.698;19.050;2022-09-21T14:51:32;17.27;46.91
64937;SHT30;51452;47.698;19.050;2022-09-21T14:57:24;17.34;48.10
64937;SHT30;51452;47.698;19.050;2022-09-21T15:00:19;17.24;46.57
64937;SHT30;51452;47.698;19.050;2022-09-21T15:02:47;17.32;46.78
64937;SHT30;51452;47.698;19.050;2022-09-21T15:05:45;17.35;46.31
64937;SHT30;51452;47.698;19.050;2022-09-21T15:11:30;17.28;46.15
64937;SHT30;51452;47.698;19.050;2022-09-21T15:14:14;17.21;46.80
64937;SHT30;51452;47.698;19.050;2022-09-21T15:16:46;17.23;46.97
64937;SHT30;51452;47.698;19.050;2022-09-21T15:19:26;17.32;47.05
64937;SHT30;51452;47.698;19.050;2022-09-21T15:21:53;17.27;48.30
64937;SHT30;51452;47.698;19.050;2022-09-21T15:24:23;17.27;47.67
64937;SHT30;51452;47.698;19.050;2022-09-21T15:26:50;17.20;46.30
64937;SHT30;51452;47.698;19.050;2022-09-21T15:29:24;17.11;46.37
64937;SHT30;51452;47.698;19.050;2022-09-21T15:31:50;17.04;45.96
64937;SHT30;51452;47.698;19.050;2022-09-21T15:34:16;17.02;47.76
64937;SHT30;51452;47.698;19.050;2022-09-21T15:36:42;16.90;46.61
64937;SHT30;51452;47.698;19.050;2022-09-21T15:39:28;16.99;47.85
64937;SHT30;51452;47.698;19.050;2022-09-21T15:44:36;16.84;46.46
64937;SHT30;51452;47.698;19.050;2022-09-21T15:47:05;16.96;47.65
64937;SHT30;51452;47.698;19.050;2022-09-21T15:49:33;16.96;47.57
64937;SHT30;51452;47.698;19.050;2022-09-21T15:52:03;16.91;47.17
64937;SHT30;51452;47.698;19.050;2022-09-21T15:54:40;16.83;47.50
64937;SHT30;51452;47.698;19.050;2022-09-21T15:57:29;16.77;47.90
64937;SHT30;51452;47.698;19.050;2022-09-21T15:59:59;16.75;48.15
64937;SHT30;51452;47.698;19.050;2022-09-21T16:02:29;16.76;48.42
64937;SHT30;51452;47.698;19.050;2022-09-21T16:04:55;16.57;49.29
64937;SHT30;51452;47.698;19.050;2022-09-21T16:07:31;16.59;48.70
64937;SHT30;51452;47.698;19.050;2022-09-21T16:09:56;16.55;49.21
64937;SHT30;51452;47.698;19.050;2022-09-21T16:14:53;16.56;51.00
64937;SHT30;51452;47.698;19.050;2022-09-21T16:17:28;16.45;50.10
64937;SHT30;51452;47.698;19.050;2022-09-21T16:22:37;16.32;50.34
64937;SHT30;51452;47.698;19.050;2022-09-21T16:27:58;16.12;50.82
64937;SHT30;51452;47.698;19.050;2022-09-21T16:30:38;15.94;51.30
64937;SHT30;51452;47.698;19.050;2022-09-21T16:36:03;15.81;51.42
64937;SHT30;51452;47.698;19.050;2022-09-21T16:38:30;15.80;51.65
64937;SHT30;51452;47.698;19.050;2022-09-21T16:40:57;15.75;52.10
64937;SHT30;51452;47.698;19.050;2022-09-21T16:43:23;15.75;52.16
64937;SHT30;51452;47.698;19.050;2022-09-21T16:45:49;15.70;52.39
64937;SHT30;51452;47.698;19.050;2022-09-21T16:48:14;15.66;52.70
64937;SHT30;51452;47.698;19.050;2022-09-21T16:50:39;15.64;52.79
64937;SHT30;51452;47.698;19.050;2022-09-21T16:53:07;15.50;53.29
64937;SHT30;51452;47.698;19.050;2022-09-21T16:55:33;15.56;53.14
64937;SHT30;51452;47.698;19.050;2022-09-21T16:57:59;15.44;53.54
64937;SHT30;51452;47.698;19.050;2022-09-21T17:00:26;15.49;53.49
64937;SHT30;51452;47.698;19.050;2022-09-21T17:02:53;15.43;53.77
64937;SHT30;51452;47.698;19.050;2022-09-21T17:05:18;15.33;54.18
64937;SHT30;51452;47.698;19.050;2022-09-21T17:08:02;15.25;54.26
64937;SHT30;51452;47.698;19.050;2022-09-21T17:10:32;15.29;54.48
64937;SHT30;51452;47.698;19.050;2022-09-21T17:12:58;15.19;54.72
64937;SHT30;51452;47.698;19.050;2022-09-21T17:15:24;15.18;54.82
64937;SHT30;51452;47.698;19.050;2022-09-21T17:17:50;15.13;54.75
64937;SHT30;51452;47.698;19.050;2022-09-21T17:20:19;15.09;54.87
64937;SHT30;51452;47.698;19.050;2022-09-21T17:22:47;15.06;55.18
64937;SHT30;51452;47.698;19.050;2022-09-21T17:25:13;15.00;55.32
64937;SHT30;51452;47.698;19.050;2022-09-21T17:27:38;14.92;55.58
64937;SHT30;51452;47.698;19.050;2022-09-21T17:30:11;14.91;55.89
64937;SHT30;51452;47.698;19.050;2022-09-21T17:32:37;14.92;55.83
64937;SHT30;51452;47.698;19.050;2022-09-21T17:37:53;14.79;56.57
64937;SHT30;51452;47.698;19.050;2022-09-21T17:40:19;14.72;56.79
64937;SHT30;51452;47.698;19.050;2022-09-21T17:42:44;14.76;56.77
64937;SHT30;51452;47.698;19.050;2022-09-21T17:47:39;14.68;57.40
64937;SHT30;51452;47.698;19.050;2022-09-21T17:52:36;14.54;57.96
64937;SHT30;51452;47.698;19.050;2022-09-21T17:55:20;14.51;58.59
64937;SHT30;51452;47.698;19.050;2022-09-21T17:58:17;14.48;58.35
64937;SHT30;51452;47.698;19.050;2022-09-21T18:01:00;14.49;58.89
64937;SHT30;51452;47.698;19.050;2022-09-21T18:03:30;14.48;58.92
64937;SHT30;51452;47.698;19.050;2022-09-21T18:05:56;14.42;58.76
64937;SHT30;51452;47.698;19.050;2022-09-21T18:08:26;14.45;58.88
64937;SHT30;51452;47.698;19.050;2022-09-21T18:16:57;14.40;59.01
64937;SHT30;51452;47.698;19.050;2022-09-21T18:21:56;14.31;59.20
64937;SHT30;51452;47.698;19.050;2022-09-21T18:24:27;14.25;59.47
64937;SHT30;51452;47.698;19.050;2022-09-21T18:26:56;14.17;59.76
64937;SHT30;51452;47.698;19.050;2022-09-21T18:35:07;14.12;59.89
64937;SHT30;51452;47.698;19.050;2022-09-21T18:37:56;14.07;60.37
64937;SHT30;51452;47.698;19.050;2022-09-21T18:40:41;14.02;60.60
64937;SHT30;51452;47.698;19.050;2022-09-21T18:45:45;13.96;60.80
64937;SHT30;51452;47.698;19.050;2022-09-21T18:53:52;13.85;61.11
64937;SHT30;51452;47.698;19.050;2022-09-21T18:56:20;13.80;61.29
64937;SHT30;51452;47.698;19.050;2022-09-21T18:58:46;13.82;61.27
64937;SHT30;51452;47.698;19.050;2022-09-21T19:01:14;13.83;61.34
64937;SHT30;51452;47.698;19.050;2022-09-21T19:03:41;13.75;61.46
64937;SHT30;51452;47.698;19.050;2022-09-21T19:09:37;13.70;61.41
64937;SHT30;51452;47.698;19.050;2022-09-21T19:12:19;13.66;61.49
64937;SHT30;51452;47.698;19.050;2022-09-21T19:20:55;13.63;61.67